sensor_id;sensor_type;location;lat;lon;timestamp;pressure;altitude;pressure_sealevel;temperature;humidity
6034;BME280;3045;43.226;27.858;2023-02-18T00:01:09;147790.75;;;6.94;100.00
6034;BME280;3045;43.226;27.858;2023-02-18T00:03:36;147818.44;;;7.05;100.00
6034;BME280;3045;43.226;27.858;2023-02-18T00:06:10;147826.03;;;7.08;100.00
6034;BME280;3045;43.226;27.858;2023-02-18T00:08:37;147847.47;;;7.16;100.00
6034;BME280;3045;43.226;27.858;2023-02-18T00:11:04;147799.56;;;6.97;100.00
6034;BME280;3045;43.226;27.858;2023-02-18T00:13:31;147781.94;;;6.90;100.00
6034;BME280;3045;43.226;27.858;2023-02-18T00:16:00;147783.19;;;6.91;100.00
6034;BME280;3045;43.226;27.858;2023-02-18T00:18:28;147779.41;;;6.89;100.00
6034;BME280;3045;43.226;27.858;2023-02-18T00:20:55;147740.34;;;6.73;100.00
6034;BME280;3045;43.226;27.858;2023-02-18T00:23:22;147723.94;;;6.67;100.00
6034;BME280;3045;43.226;27.858;2023-02-18T00:25:51;147768.06;;;6.84;100.00
6034;BME280;3045;43.226;27.858;2023-02-18T00:28:24;147798.28;;;6.97;100.00
6034;BME280;3045;43.226;27.858;2023-02-18T00:30:50;147819.72;;;7.05;100.00
6034;BME280;3045;43.226;27.858;2023-02-18T00:33:17;147844.94;;;7.15;100.00
6034;BME280;3045;43.226;27.858;2023-02-18T00:35:45;147803.34;;;6.99;100.00
6034;BME280;3045;43.226;27.858;2023-02-18T00:38:12;147820.97;;;7.06;100.00
6034;BME280;3045;43.226;27.858;2023-02-18T00:40:40;147780.66;;;6.89;100.00
6034;BME280;3045;43.226;27.858;2023-02-18T00:43:07;147804.63;;;6.99;100.00
6034;BME280;3045;43.226;27.858;2023-02-18T00:45:34;147795.81;;;6.96;100.00
6034;BME280;3045;43.226;27.858;2023-02-18T00:48:01;147797.03;;;6.96;100.00
6034;BME280;3045;43.226;27.858;2023-02-18T00:50:28;147788.22;;;6.93;100.00
6034;BME280;3045;43.226;27.858;2023-02-18T00:52:56;147725.22;;;6.67;100.00
6034;BME280;3045;43.226;27.858;2023-02-18T00:55:23;147734.00;;;6.71;100.00
6034;BME280;3045;43.226;27.858;2023-02-18T00:57:50;147783.19;;;6.91;100.00
6034;BME280;3045;43.226;27.858;2023-02-18T01:00:17;147793.28;;;6.95;100.00
6034;BME280;3045;43.226;27.858;2023-02-18T01:02:44;147766.78;;;6.84;100.00
6034;BME280;3045;43.226;27.858;2023-02-18T01:05:11;147795.81;;;6.96;100.00
6034;BME280;3045;43.226;27.858;2023-02-18T01:07:38;147774.38;;;6.87;100.00
6034;BME280;3045;43.226;27.858;2023-02-18T01:10:07;147776.88;;;6.88;100.00
6034;BME280;3045;43.226;27.858;2023-02-18T01:12:34;147764.31;;;6.83;100.00
6034;BME280;3045;43.226;27.858;2023-02-18T01:15:01;147752.97;;;6.78;100.00
6034;BME280;3045;43.226;27.858;2023-02-18T01:17:28;147773.13;;;6.86;100.00
6034;BME280;3045;43.226;27.858;2023-02-18T01:19:55;147766.78;;;6.84;100.00
6034;BME280;3045;43.226;27.858;2023-02-18T01:22:22;147781.94;;;6.90;100.00
6034;BME280;3045;43.226;27.858;2023-02-18T01:24:49;147797.03;;;6.96;100.00
6034;BME280;3045;43.226;27.858;2023-02-18T01:27:17;147798.28;;;6.97;100.00
6034;BME280;3045;43.226;27.858;2023-02-18T01:29:44;147808.38;;;7.01;100.00
6034;BME280;3045;43.226;27.858;2023-02-18T01:32:11;147803.34;;;6.99;100.00
6034;BME280;3045;43.226;27.858;2023-02-18T01:34:38;147803.34;;;6.99;100.00
6034;BME280;3045;43.226;27.858;2023-02-18T01:37:04;147829.78;;;7.09;100.00
6034;BME280;3045;43.226;27.858;2023-02-18T01:39:31;147828.53;;;7.09;100.00
6034;BME280;3045;43.226;27.858;2023-02-18T01:41:58;147828.53;;;7.09;100.00
6034;BME280;3045;43.226;27.858;2023-02-18T01:44:27;147822.25;;;7.06;100.00
6034;BME280;3045;43.226;27.858;2023-02-18T01:46:55;147810.91;;;7.02;100.00
6034;BME280;3045;43.226;27.858;2023-02-18T01:49:26;147851.22;;;7.18;100.00
6034;BME280;3045;43.226;27.858;2023-02-18T01:51:57;147851.22;;;7.18;100.00
6034;BME280;3045;43.226;27.858;2023-02-18T01:54:27;147818.44;;;7.05;100.00
6034;BME280;3045;43.226;27.858;2023-02-18T01:56:59;147807.09;;;7.00;100.00
6034;BME280;3045;43.226;27.858;2023-02-18T01:59:30;147785.72;;;6.92;100.00
6034;BME280;3045;43.226;27.858;2023-02-18T02:01:58;147788.22;;;6.93;100.00
6034;BME280;3045;43.226;27.858;2023-02-18T02:04:26;147788.22;;;6.93;100.00
6034;BME280;3045;43.226;27.858;2023-02-18T02:06:53;147778.13;;;6.88;100.00
6034;BME280;3045;43.226;27.858;2023-02-18T02:09:21;147776.88;;;6.88;100.00
6034;BME280;3045;43.226;27.858;2023-02-18T02:12:27;147778.13;;;6.88;100.00
6034;BME280;3045;43.226;27.858;2023-02-18T02:15:11;147757.97;;;6.80;100.00
6034;BME280;3045;43.226;27.858;2023-02-18T02:17:46;147745.34;;;6.75;100.00
6034;BME280;3045;43.226;27.858;2023-02-18T02:20:53;147754.16;;;6.79;100.00
6034;BME280;3045;43.226;27.858;2023-02-18T02:23:45;147752.97;;;6.78;100.00
6034;BME280;3045;43.226;27.858;2023-02-18T02:26:37;147746.63;;;6.76;100.00
6034;BME280;3045;43.226;27.858;2023-02-18T02:32:38;147720.19;;;6.65;100.00
6034;BME280;3045;43.226;27.858;2023-02-18T02:35:11;147710.13;;;6.61;100.00
6034;BME280;3045;43.226;27.858;2023-02-18T02:37:44;147692.44;;;6.54;100.00
6034;BME280;3045;43.226;27.858;2023-02-18T02:40:21;147626.97;;;6.28;100.00
6034;BME280;3045;43.226;27.858;2023-02-18T02:42:57;147629.47;;;6.29;100.00
6034;BME280;3045;43.226;27.858;2023-02-18T02:45:36;147594.22;;;6.15;100.00
6034;BME280;3045;43.226;27.858;2023-02-18T02:48:08;147642.06;;;6.34;100.00
6034;BME280;3045;43.226;27.858;2023-02-18T02:50:46;147654.66;;;6.39;100.00
6034;BME280;3045;43.226;27.858;2023-02-18T02:53:19;147672.28;;;6.46;100.00
6034;BME280;3045;43.226;27.858;2023-02-18T02:55:48;147750.44;;;6.77;100.00
6034;BME280;3045;43.226;27.858;2023-02-18T02:58:18;147763.03;;;6.82;100.00
6034;BME280;3045;43.226;27.858;2023-02-18T03:03:52;147798.28;;;6.97;100.00
6034;BME280;3045;43.226;27.858;2023-02-18T03:06:47;147828.53;;;7.09;100.00
6034;BME280;3045;43.226;27.858;2023-02-18T03:09:23;147849.97;;;7.17;100.00
6034;BME280;3045;43.226;27.858;2023-02-18T03:11:58;147900.41;;;7.38;100.00
6034;BME280;3045;43.226;27.858;2023-02-18T03:14:34;147933.22;;;7.51;100.00
6034;BME280;3045;43.226;27.858;2023-02-18T03:17:11;147909.25;;;7.41;100.00
6034;BME280;3045;43.226;27.858;2023-02-18T03:19:45;147939.50;;;7.53;100.00
6034;BME280;3045;43.226;27.858;2023-02-18T03:22:18;147933.22;;;7.51;100.00
6034;BME280;3045;43.226;27.858;2023-02-18T03:24:49;147930.69;;;7.50;100.00
6034;BME280;3045;43.226;27.858;2023-02-18T03:27:20;147960.94;;;7.62;100.00
6034;BME280;3045;43.226;27.858;2023-02-18T03:29:52;147974.81;;;7.67;100.00
6034;BME280;3045;43.226;27.858;2023-02-18T03:32:22;147983.63;;;7.71;100.00
6034;BME280;3045;43.226;27.858;2023-02-18T03:34:54;147972.28;;;7.66;100.00
6034;BME280;3045;43.226;27.858;2023-02-18T03:37:24;148002.53;;;7.78;100.00
6034;BME280;3045;43.226;27.858;2023-02-18T03:39:55;147991.19;;;7.74;100.00
6034;BME280;3045;43.226;27.858;2023-02-18T03:42:24;147996.25;;;7.76;100.00
6034;BME280;3045;43.226;27.858;2023-02-18T03:44:52;148010.09;;;7.81;100.00
6034;BME280;3045;43.226;27.858;2023-02-18T03:47:19;148042.91;;;7.95;100.00
6034;BME280;3045;43.226;27.858;2023-02-18T03:49:46;148046.69;;;7.96;100.00
6034;BME280;3045;43.226;27.858;2023-02-18T03:52:13;148089.59;;;8.13;100.00
6034;BME280;3045;43.226;27.858;2023-02-18T03:54:41;148104.69;;;8.19;100.00
6034;BME280;3045;43.226;27.858;2023-02-18T03:57:08;148137.56;;;8.33;100.00
6034;BME280;3045;43.226;27.858;2023-02-18T03:59:35;148159.00;;;8.41;100.00
6034;BME280;3045;43.226;27.858;2023-02-18T04:02:02;148169.09;;;8.45;100.00
6034;BME280;3045;43.226;27.858;2023-02-18T04:04:29;148200.66;;;8.58;100.00
6034;BME280;3045;43.226;27.858;2023-02-18T04:06:55;148217.06;;;8.64;100.00
6034;BME280;3045;43.226;27.858;2023-02-18T04:09:22;148230.91;;;8.70;100.00
6034;BME280;3045;43.226;27.858;2023-02-18T04:11:50;148244.81;;;8.76;100.00
6034;BME280;3045;43.226;27.858;2023-02-18T04:14:17;148256.19;;;8.80;100.00
6034;BME280;3045;43.226;27.858;2023-02-18T04:16:44;148278.91;;;8.89;100.00
6034;BME280;3045;43.226;27.858;2023-02-18T04:19:11;148270.09;;;8.86;100.00
6034;BME280;3045;43.226;27.858;2023-02-18T04:21:38;148280.19;;;8.90;100.00
6034;BME280;3045;43.226;27.858;2023-02-18T04:24:05;148270.09;;;8.86;100.00
6034;BME280;3045;43.226;27.858;2023-02-18T04:26:32;148239.81;;;8.74;100.00
6034;BME280;3045;43.226;27.858;2023-02-18T04:29:00;148246.09;;;8.76;100.00
6034;BME280;3045;43.226;27.858;2023-02-18T04:31:27;148234.72;;;8.71;100.00
6034;BME280;3045;43.226;27.858;2023-02-18T04:33:54;148181.72;;;8.50;100.00
6034;BME280;3045;43.226;27.858;2023-02-18T04:36:20;148136.28;;;8.32;100.00
6034;BME280;3045;43.226;27.858;2023-02-18T04:38:47;148131.25;;;8.30;100.00
6034;BME280;3045;43.226;27.858;2023-02-18T04:41:14;148111.03;;;8.22;100.00
6034;BME280;3045;43.226;27.858;2023-02-18T04:43:41;148118.59;;;8.25;100.00
6034;BME280;3045;43.226;27.858;2023-02-18T04:46:09;148119.84;;;8.25;100.00
6034;BME280;3045;43.226;27.858;2023-02-18T04:48:36;148114.78;;;8.23;100.00
6034;BME280;3045;43.226;27.858;2023-02-18T04:51:03;148130.00;;;8.30;100.00
6034;BME280;3045;43.226;27.858;2023-02-18T04:53:30;148130.00;;;8.30;100.00
6034;BME280;3045;43.226;27.858;2023-02-18T04:55:57;148159.00;;;8.41;100.00
6034;BME280;3045;43.226;27.858;2023-02-18T04:58:24;148169.09;;;8.45;100.00
6034;BME280;3045;43.226;27.858;2023-02-18T05:00:51;148152.72;;;8.39;100.00
6034;BME280;3045;43.226;27.858;2023-02-18T05:03:20;148157.72;;;8.41;100.00
6034;BME280;3045;43.226;27.858;2023-02-18T05:05:47;148175.44;;;8.48;100.00
6034;BME280;3045;43.226;27.858;2023-02-18T05:08:14;148189.28;;;8.53;100.00
6034;BME280;3045;43.226;27.858;2023-02-18T05:10:41;148189.28;;;8.53;100.00
6034;BME280;3045;43.226;27.858;2023-02-18T05:13:08;148199.38;;;8.57;100.00
6034;BME280;3045;43.226;27.858;2023-02-18T05:15:35;148199.38;;;8.57;100.00
6034;BME280;3045;43.226;27.858;2023-02-18T05:18:02;148213.28;;;8.63;100.00
6034;BME280;3045;43.226;27.858;2023-02-18T05:20:30;148204.44;;;8.59;100.00
6034;BME280;3045;43.226;27.858;2023-02-18T05:22:57;148230.91;;;8.70;100.00
6034;BME280;3045;43.226;27.858;2023-02-18T05:25:24;148208.25;;;8.61;100.00
6034;BME280;3045;43.226;27.858;2023-02-18T05:27:51;148263.75;;;8.83;100.00
6034;BME280;3045;43.226;27.858;2023-02-18T05:30:18;148281.44;;;8.90;100.00
6034;BME280;3045;43.226;27.858;2023-02-18T05:32:45;148297.84;;;8.97;100.00
6034;BME280;3045;43.226;27.858;2023-02-18T05:35:11;148290.28;;;8.94;100.00
6034;BME280;3045;43.226;27.858;2023-02-18T05:37:40;148323.09;;;9.07;100.00
6034;BME280;3045;43.226;27.858;2023-02-18T05:40:07;148325.63;;;9.08;100.00
6034;BME280;3045;43.226;27.858;2023-02-18T05:42:34;148360.97;;;9.22;100.00
6034;BME280;3045;43.226;27.858;2023-02-18T05:45:01;148381.16;;;9.30;100.00
6034;BME280;3045;43.226;27.858;2023-02-18T05:47:28;148397.59;;;9.37;100.00
6034;BME280;3045;43.226;27.858;2023-02-18T05:49:55;148405.16;;;9.40;100.00
6034;BME280;3045;43.226;27.858;2023-02-18T05:52:22;148396.34;;;9.36;100.00
6034;BME280;3045;43.226;27.858;2023-02-18T05:54:50;148419.06;;;9.45;100.00
6034;BME280;3045;43.226;27.858;2023-02-18T05:57:17;148436.72;;;9.52;100.00
6034;BME280;3045;43.226;27.858;2023-02-18T05:59:44;148432.94;;;9.51;100.00
6034;BME280;3045;43.226;27.858;2023-02-18T06:02:11;148472.13;;;9.67;100.00
6034;BME280;3045;43.226;27.858;2023-02-18T06:04:38;148450.66;;;9.58;99.03
6034;BME280;3045;43.226;27.858;2023-02-18T06:07:05;148456.94;;;9.60;100.00
6034;BME280;3045;43.226;27.858;2023-02-18T06:09:32;148449.38;;;9.57;100.00
6034;BME280;3045;43.226;27.858;2023-02-18T06:12:00;148489.78;;;9.74;100.00
6034;BME280;3045;43.226;27.858;2023-02-18T06:14:27;148498.63;;;9.77;100.00
6034;BME280;3045;43.226;27.858;2023-02-18T06:16:54;148501.16;;;9.78;99.94
6034;BME280;3045;43.226;27.858;2023-02-18T06:19:21;148513.81;;;9.83;99.25
6034;BME280;3045;43.226;27.858;2023-02-18T06:21:48;148517.56;;;9.85;97.16
6034;BME280;3045;43.226;27.858;2023-02-18T06:24:15;148522.63;;;9.87;98.00
6034;BME280;3045;43.226;27.858;2023-02-18T06:26:42;148513.81;;;9.83;98.88
6034;BME280;3045;43.226;27.858;2023-02-18T06:29:10;148516.34;;;9.84;98.89
6034;BME280;3045;43.226;27.858;2023-02-18T06:31:37;148558.03;;;10.01;99.10
6034;BME280;3045;43.226;27.858;2023-02-18T06:34:04;148569.41;;;10.05;97.31
6034;BME280;3045;43.226;27.858;2023-02-18T06:36:31;148588.34;;;10.13;96.02
6034;BME280;3045;43.226;27.858;2023-02-18T06:38:58;148606.06;;;10.20;94.88
6034;BME280;3045;43.226;27.858;2023-02-18T06:41:25;148626.28;;;10.28;94.27
6034;BME280;3045;43.226;27.858;2023-02-18T06:43:51;148638.94;;;10.33;95.58
6034;BME280;3045;43.226;27.858;2023-02-18T06:46:20;148646.50;;;10.36;95.34
6034;BME280;3045;43.226;27.858;2023-02-18T06:48:47;148649.03;;;10.37;92.59
6034;BME280;3045;43.226;27.858;2023-02-18T06:51:14;148678.09;;;10.49;92.84
6034;BME280;3045;43.226;27.858;2023-02-18T06:53:41;148644.00;;;10.35;92.89
6034;BME280;3045;43.226;27.858;2023-02-18T06:56:09;148651.56;;;10.38;91.59
6034;BME280;3045;43.226;27.858;2023-02-18T06:58:36;148675.59;;;10.48;91.58
6034;BME280;3045;43.226;27.858;2023-02-18T07:01:03;148660.41;;;10.42;90.91
6034;BME280;3045;43.226;27.858;2023-02-18T07:03:32;148700.84;;;10.58;92.05
6034;BME280;3045;43.226;27.858;2023-02-18T07:05:59;148732.44;;;10.71;91.08
6034;BME280;3045;43.226;27.858;2023-02-18T07:08:26;148748.91;;;10.77;88.57
6034;BME280;3045;43.226;27.858;2023-02-18T07:10:55;148780.53;;;10.90;87.09
6034;BME280;3045;43.226;27.858;2023-02-18T07:13:22;148776.72;;;10.88;86.75
6034;BME280;3045;43.226;27.858;2023-02-18T07:15:49;148785.56;;;10.92;86.38
6034;BME280;3045;43.226;27.858;2023-02-18T07:18:16;148838.66;;;11.13;85.25
6034;BME280;3045;43.226;27.858;2023-02-18T07:20:45;148850.03;;;11.18;84.97
6034;BME280;3045;43.226;27.858;2023-02-18T07:23:12;148828.56;;;11.09;82.69
6034;BME280;3045;43.226;27.858;2023-02-18T07:25:39;148896.84;;;11.36;82.09
6034;BME280;3045;43.226;27.858;2023-02-18T07:28:06;148910.75;;;11.42;80.94
6034;BME280;3045;43.226;27.858;2023-02-18T07:30:32;148909.47;;;11.41;81.31
6034;BME280;3045;43.226;27.858;2023-02-18T07:32:59;148937.34;;;11.53;80.84
6034;BME280;3045;43.226;27.858;2023-02-18T07:35:26;148936.06;;;11.52;79.88
6034;BME280;3045;43.226;27.858;2023-02-18T07:37:54;148970.22;;;11.66;80.95
6034;BME280;3045;43.226;27.858;2023-02-18T07:40:22;148961.38;;;11.62;80.89
6034;BME280;3045;43.226;27.858;2023-02-18T07:42:49;148998.09;;;11.77;80.11
6034;BME280;3045;43.226;27.858;2023-02-18T07:45:16;149049.97;;;11.98;79.94
6034;BME280;3045;43.226;27.858;2023-02-18T07:47:43;149099.34;;;12.17;79.86
6034;BME280;3045;43.226;27.858;2023-02-18T07:50:10;149117.06;;;12.24;78.86
6034;BME280;3045;43.226;27.858;2023-02-18T07:52:37;149152.50;;;12.39;77.89
6034;BME280;3045;43.226;27.858;2023-02-18T07:55:06;149210.72;;;12.62;77.18
6034;BME280;3045;43.226;27.858;2023-02-18T07:57:33;149243.66;;;12.75;75.40
6034;BME280;3045;43.226;27.858;2023-02-18T08:00:20;149272.75;;;12.87;73.48
6034;BME280;3045;43.226;27.858;2023-02-18T08:02:47;149309.50;;;13.01;72.50
6034;BME280;3045;43.226;27.858;2023-02-18T08:05:14;149342.50;;;13.14;71.96
6034;BME280;3045;43.226;27.858;2023-02-18T08:07:41;149356.38;;;13.20;70.65
6034;BME280;3045;43.226;27.858;2023-02-18T08:10:09;149424.81;;;13.47;70.54
6034;BME280;3045;43.226;27.858;2023-02-18T08:12:36;149497.03;;;13.76;69.37
6034;BME280;3045;43.226;27.858;2023-02-18T08:15:03;149573.09;;;14.06;69.79
6034;BME280;3045;43.226;27.858;2023-02-18T08:17:30;149623.78;;;14.27;70.99
6034;BME280;3045;43.226;27.858;2023-02-18T08:19:57;149673.31;;;14.46;70.48
6034;BME280;3045;43.226;27.858;2023-02-18T08:22:24;149734.16;;;14.71;68.73
6034;BME280;3045;43.226;27.858;2023-02-18T08:24:53;149778.53;;;14.88;68.14
6034;BME280;3045;43.226;27.858;2023-02-18T08:27:22;149805.16;;;14.99;66.90
6034;BME280;3045;43.226;27.858;2023-02-18T08:29:49;149798.84;;;14.96;65.14
6034;BME280;3045;43.226;27.858;2023-02-18T08:32:16;149852.13;;;15.18;63.97
6034;BME280;3045;43.226;27.858;2023-02-18T08:34:43;149880.00;;;15.29;61.85
6034;BME280;3045;43.226;27.858;2023-02-18T08:37:10;149915.53;;;15.43;61.32
6034;BME280;3045;43.226;27.858;2023-02-18T08:39:37;149897.78;;;15.36;61.75
6034;BME280;3045;43.226;27.858;2023-02-18T08:42:04;149888.88;;;15.32;60.73
6034;BME280;3045;43.226;27.858;2023-02-18T08:44:33;149910.44;;;15.41;59.65
6034;BME280;3045;43.226;27.858;2023-02-18T08:46:59;149892.69;;;15.34;59.02
6034;BME280;3045;43.226;27.858;2023-02-18T08:49:26;149935.88;;;15.51;58.88
6034;BME280;3045;43.226;27.858;2023-02-18T08:51:53;149970.16;;;15.65;58.49
6034;BME280;3045;43.226;27.858;2023-02-18T08:54:20;149948.59;;;15.56;57.85
6034;BME280;3045;43.226;27.858;2023-02-18T08:56:47;149977.75;;;15.68;57.76
6034;BME280;3045;43.226;27.858;2023-02-18T08:59:14;150013.31;;;15.82;55.42
6034;BME280;3045;43.226;27.858;2023-02-18T09:01:43;150076.78;;;16.07;53.42
6034;BME280;3045;43.226;27.858;2023-02-18T09:04:09;150137.69;;;16.31;53.04
6034;BME280;3045;43.226;27.858;2023-02-18T09:06:37;150205.06;;;16.58;52.80
6034;BME280;3045;43.226;27.858;2023-02-18T09:09:04;150203.78;;;16.58;52.04
6034;BME280;3045;43.226;27.858;2023-02-18T09:11:31;150212.66;;;16.61;52.18
6034;BME280;3045;43.226;27.858;2023-02-18T09:13:58;150215.22;;;16.62;51.98
6034;BME280;3045;43.226;27.858;2023-02-18T09:16:25;150239.38;;;16.72;51.74
6034;BME280;3045;43.226;27.858;2023-02-18T09:18:54;150259.69;;;16.80;51.66
6034;BME280;3045;43.226;27.858;2023-02-18T09:21:21;150273.63;;;16.85;51.33
6034;BME280;3045;43.226;27.858;2023-02-18T09:23:49;150234.25;;;16.70;50.85
6034;BME280;3045;43.226;27.858;2023-02-18T09:26:19;150301.59;;;16.97;49.88
6034;BME280;3045;43.226;27.858;2023-02-18T09:28:47;150316.81;;;17.03;49.41
6034;BME280;3045;43.226;27.858;2023-02-18T09:31:17;150309.19;;;17.00;48.99
6034;BME280;3045;43.226;27.858;2023-02-18T09:33:47;150354.94;;;17.18;49.12
6034;BME280;3045;43.226;27.858;2023-02-18T09:36:16;150371.44;;;17.24;48.57
6034;BME280;3045;43.226;27.858;2023-02-18T09:38:43;150360.00;;;17.20;48.51
6034;BME280;3045;43.226;27.858;2023-02-18T09:41:15;150338.41;;;17.11;48.61
6034;BME280;3045;43.226;27.858;2023-02-18T09:43:48;150305.38;;;16.98;48.47
6034;BME280;3045;43.226;27.858;2023-02-18T09:46:20;150282.50;;;16.89;48.63
6034;BME280;3045;43.226;27.858;2023-02-18T09:48:48;150238.09;;;16.71;48.56
6034;BME280;3045;43.226;27.858;2023-02-18T09:51:16;150266.00;;;16.82;49.01
6034;BME280;3045;43.226;27.858;2023-02-18T09:53:45;150272.34;;;16.85;49.00
6034;BME280;3045;43.226;27.858;2023-02-18T09:56:14;150235.53;;;16.70;49.10
6034;BME280;3045;43.226;27.858;2023-02-18T09:58:44;150238.09;;;16.71;49.31
6034;BME280;3045;43.226;27.858;2023-02-18T10:01:19;150220.28;;;16.64;49.20
6034;BME280;3045;43.226;27.858;2023-02-18T10:03:47;150191.03;;;16.53;49.12
6034;BME280;3045;43.226;27.858;2023-02-18T10:06:18;150205.06;;;16.58;49.32
6034;BME280;3045;43.226;27.858;2023-02-18T10:08:50;150166.91;;;16.43;50.04
6034;BME280;3045;43.226;27.858;2023-02-18T10:11:23;150164.38;;;16.42;49.68
6034;BME280;3045;43.226;27.858;2023-02-18T10:13:54;150178.31;;;16.48;50.03
6034;BME280;3045;43.226;27.858;2023-02-18T10:16:23;150184.72;;;16.50;49.93
6034;BME280;3045;43.226;27.858;2023-02-18T10:18:53;150166.91;;;16.43;50.13
6034;BME280;3045;43.226;27.858;2023-02-18T10:21:24;150187.22;;;16.51;50.16
6034;BME280;3045;43.226;27.858;2023-02-18T10:23:57;150207.56;;;16.59;50.15
6034;BME280;3045;43.226;27.858;2023-02-18T10:26:26;150210.13;;;16.60;50.61
6034;BME280;3045;43.226;27.858;2023-02-18T10:28:53;150211.41;;;16.61;50.22
6034;BME280;3045;43.226;27.858;2023-02-18T10:31:24;150260.91;;;16.80;50.71
6034;BME280;3045;43.226;27.858;2023-02-18T10:33:59;150236.81;;;16.71;50.66
6034;BME280;3045;43.226;27.858;2023-02-18T10:36:35;150288.88;;;16.92;50.73
6034;BME280;3045;43.226;27.858;2023-02-18T10:39:19;150324.47;;;17.06;50.80
6034;BME280;3045;43.226;27.858;2023-02-18T10:41:56;150344.78;;;17.14;50.78
6034;BME280;3045;43.226;27.858;2023-02-18T10:44:31;150353.69;;;17.17;51.01
6034;BME280;3045;43.226;27.858;2023-02-18T10:47:11;150352.41;;;17.17;51.35
6034;BME280;3045;43.226;27.858;2023-02-18T10:49:57;150349.84;;;17.16;51.79
6034;BME280;3045;43.226;27.858;2023-02-18T10:52:29;150304.09;;;16.98;52.25
6034;BME280;3045;43.226;27.858;2023-02-18T10:55:00;150339.69;;;17.12;52.36
6034;BME280;3045;43.226;27.858;2023-02-18T10:57:29;150370.16;;;17.24;52.50
6034;BME280;3045;43.226;27.858;2023-02-18T10:59:59;150372.72;;;17.25;53.21
6034;BME280;3045;43.226;27.858;2023-02-18T11:02:29;150396.88;;;17.34;53.50
6034;BME280;3045;43.226;27.858;2023-02-18T11:04:59;150380.34;;;17.28;53.52
6034;BME280;3045;43.226;27.858;2023-02-18T11:07:33;150398.16;;;17.35;53.65
6034;BME280;3045;43.226;27.858;2023-02-18T11:10:09;150427.38;;;17.47;53.34
6034;BME280;3045;43.226;27.858;2023-02-18T11:12:43;150469.34;;;17.63;53.66
6034;BME280;3045;43.226;27.858;2023-02-18T11:15:20;150504.97;;;17.77;54.27
6034;BME280;3045;43.226;27.858;2023-02-18T11:17:49;150541.78;;;17.92;54.54
6034;BME280;3045;43.226;27.858;2023-02-18T11:20:29;150530.34;;;17.88;55.10
6034;BME280;3045;43.226;27.858;2023-02-18T11:23:12;150585.00;;;18.09;55.72
6034;BME280;3045;43.226;27.858;2023-02-18T11:25:41;150616.78;;;18.22;55.22
6034;BME280;3045;43.226;27.858;2023-02-18T11:28:41;150612.97;;;18.20;55.44
6034;BME280;3045;43.226;27.858;2023-02-18T11:31:11;150637.13;;;18.30;55.25
6034;BME280;3045;43.226;27.858;2023-02-18T11:33:43;150700.75;;;18.55;55.14
6034;BME280;3045;43.226;27.858;2023-02-18T11:36:19;150717.31;;;18.62;54.35
6034;BME280;3045;43.226;27.858;2023-02-18T11:38:51;150699.50;;;18.55;54.36
6034;BME280;3045;43.226;27.858;2023-02-18T11:41:20;150668.94;;;18.43;54.39
6034;BME280;3045;43.226;27.858;2023-02-18T11:43:50;150642.25;;;18.32;54.76
6034;BME280;3045;43.226;27.858;2023-02-18T11:46:20;150616.78;;;18.22;54.78
6034;BME280;3045;43.226;27.858;2023-02-18T11:48:48;150660.03;;;18.39;55.00
6034;BME280;3045;43.226;27.858;2023-02-18T11:51:17;150671.47;;;18.44;54.63
6034;BME280;3045;43.226;27.858;2023-02-18T11:53:57;150689.28;;;18.51;54.74
6034;BME280;3045;43.226;27.858;2023-02-18T11:56:26;150693.16;;;18.52;54.72
6034;BME280;3045;43.226;27.858;2023-02-18T11:58:54;150677.81;;;18.46;54.35
6034;BME280;3045;43.226;27.858;2023-02-18T12:01:30;150621.91;;;18.24;54.52
6034;BME280;3045;43.226;27.858;2023-02-18T12:04:03;150679.09;;;18.47;54.57
6034;BME280;3045;43.226;27.858;2023-02-18T12:06:36;150700.75;;;18.55;54.65
6034;BME280;3045;43.226;27.858;2023-02-18T12:09:10;150665.16;;;18.41;54.75
6034;BME280;3045;43.226;27.858;2023-02-18T12:11:45;150634.59;;;18.29;54.97
6034;BME280;3045;43.226;27.858;2023-02-18T12:14:17;150632.06;;;18.28;55.73
6034;BME280;3045;43.226;27.858;2023-02-18T12:16:56;150609.19;;;18.19;56.19
6034;BME280;3045;43.226;27.858;2023-02-18T12:22:31;150604.06;;;18.17;56.55
6034;BME280;3045;43.226;27.858;2023-02-18T12:25:21;150593.91;;;18.13;56.94
6034;BME280;3045;43.226;27.858;2023-02-18T12:27:58;150577.41;;;18.06;56.84
6034;BME280;3045;43.226;27.858;2023-02-18T12:30:55;150551.97;;;17.96;57.16
6034;BME280;3045;43.226;27.858;2023-02-18T12:33:33;150632.06;;;18.28;57.19
6034;BME280;3045;43.226;27.858;2023-02-18T12:36:11;150642.25;;;18.32;56.76
6034;BME280;3045;43.226;27.858;2023-02-18T12:39:02;150632.06;;;18.28;57.49
6034;BME280;3045;43.226;27.858;2023-02-18T12:41:39;150596.47;;;18.14;58.69
6034;BME280;3045;43.226;27.858;2023-02-18T12:44:19;150586.28;;;18.10;58.94
6034;BME280;3045;43.226;27.858;2023-02-18T12:47:03;150548.16;;;17.95;59.70
6034;BME280;3045;43.226;27.858;2023-02-18T12:50:02;150572.28;;;18.04;59.39
6034;BME280;3045;43.226;27.858;2023-02-18T12:52:43;150560.84;;;18.00;59.32
6034;BME280;3045;43.226;27.858;2023-02-18T12:55:32;150554.50;;;17.97;59.53
6034;BME280;3045;43.226;27.858;2023-02-18T12:58:09;150539.22;;;17.91;60.03
6034;BME280;3045;43.226;27.858;2023-02-18T13:00:59;150501.13;;;17.76;60.15
6034;BME280;3045;43.226;27.858;2023-02-18T13:03:41;150515.13;;;17.82;60.33
6034;BME280;3045;43.226;27.858;2023-02-18T13:06:20;150520.19;;;17.84;60.97
6034;BME280;3045;43.226;27.858;2023-02-18T13:08:56;150510.00;;;17.79;61.12
6034;BME280;3045;43.226;27.858;2023-02-18T13:11:35;150489.69;;;17.71;61.07
6034;BME280;3045;43.226;27.858;2023-02-18T13:14:10;150489.69;;;17.71;61.75
6034;BME280;3045;43.226;27.858;2023-02-18T13:16:40;150493.50;;;17.73;61.59
6034;BME280;3045;43.226;27.858;2023-02-18T13:19:15;150512.56;;;17.80;61.55
6034;BME280;3045;43.226;27.858;2023-02-18T13:21:45;150507.47;;;17.78;61.64
6034;BME280;3045;43.226;27.858;2023-02-18T13:24:18;150499.84;;;17.75;61.50
6034;BME280;3045;43.226;27.858;2023-02-18T13:26:52;150492.22;;;17.72;61.83